Terminal Aerodrome Forecast
Issued by NWS Atlanta, GA

Home | Current Version | Previous Version | Text Only | Print | Product List | Glossary On
Versions: 1 2 3 4 5 6 7 8 9 10 11 12 13 14 15 16
000
FTUS42 KFFC 291131
TAFMCN
TAF
KMCN 291131Z 2912/3012 00000KT P6SM SKC
     FM291600 16006KT P6SM FEW200
     FM292200 20008KT P6SM SCT120
     FM292300 21007KT P6SM BKN070
     FM300400 26005KT P6SM BKN025
     FM300600 26004KT P6SM BKN012 PROB30 3006/3010 -RA BKN012=

USA.gov is the U.S. government's official web portal to all federal, state and local government web resources and services.